TAF Text Data
IDs:
Format:
Raw Decoded Include METAR

Data at: 0737 UTC 21 Oct 2018

KRIC 210520Z 2106/2206 32015G25KT P6SM SCT050 BKN090
  FM211000 31012G22KT P6SM SCT120
  FM211500 32015G28KT P6SM SKC
  FM212300 33006KT P6SM SKC